sensor_id;sensor_type;location;lat;lon;timestamp;pressure;altitude;pressure_sealevel;temperature;humidity
50268;BME280;36153;50.960;6.220;2023-06-14T00:00:34;100350.59;;;21.37;39.08
50268;BME280;36153;50.960;6.220;2023-06-14T00:03:35;100344.84;;;21.49;39.11
50268;BME280;36153;50.960;6.220;2023-06-14T00:06:35;100347.13;;;21.35;39.72
50268;BME280;36153;50.960;6.220;2023-06-14T00:09:35;100342.25;;;21.22;39.97
50268;BME280;36153;50.960;6.220;2023-06-14T00:12:36;100342.59;;;21.13;40.30
50268;BME280;36153;50.960;6.220;2023-06-14T00:15:37;100346.22;;;21.10;39.99
50268;BME280;36153;50.960;6.220;2023-06-14T00:18:38;100340.84;;;21.12;39.94
50268;BME280;36153;50.960;6.220;2023-06-14T00:21:38;100349.06;;;21.04;40.25
50268;BME280;36153;50.960;6.220;2023-06-14T00:24:39;100342.00;;;21.05;40.57
50268;BME280;36153;50.960;6.220;2023-06-14T00:27:39;100342.13;;;21.00;40.42
50268;BME280;36153;50.960;6.220;2023-06-14T00:30:40;100347.53;;;20.97;40.24
50268;BME280;36153;50.960;6.220;2023-06-14T00:33:40;100345.25;;;20.86;40.71
50268;BME280;36153;50.960;6.220;2023-06-14T00:36:42;100345.06;;;20.92;40.87
50268;BME280;36153;50.960;6.220;2023-06-14T00:39:43;100350.88;;;20.77;41.55
50268;BME280;36153;50.960;6.220;2023-06-14T00:42:44;100350.03;;;20.75;41.70
50268;BME280;36153;50.960;6.220;2023-06-14T00:45:44;100348.34;;;20.72;41.34
50268;BME280;36153;50.960;6.220;2023-06-14T00:48:45;100344.22;;;20.63;41.71
50268;BME280;36153;50.960;6.220;2023-06-14T00:51:47;100352.41;;;20.56;42.00
50268;BME280;36153;50.960;6.220;2023-06-14T00:54:48;100349.91;;;20.51;42.42
50268;BME280;36153;50.960;6.220;2023-06-14T00:57:48;100353.81;;;20.39;42.48
50268;BME280;36153;50.960;6.220;2023-06-14T01:00:49;100355.69;;;20.36;42.78
50268;BME280;36153;50.960;6.220;2023-06-14T01:03:51;100356.72;;;20.30;42.74
50268;BME280;36153;50.960;6.220;2023-06-14T01:06:59;100366.81;;;20.17;42.99
50268;BME280;36153;50.960;6.220;2023-06-14T01:10:31;100361.00;;;20.06;43.61
50268;BME280;36153;50.960;6.220;2023-06-14T01:13:36;100360.00;;;20.10;43.19
50268;BME280;36153;50.960;6.220;2023-06-14T01:16:38;100362.59;;;20.40;42.06
50268;BME280;36153;50.960;6.220;2023-06-14T01:19:39;100365.81;;;20.50;41.66
50268;BME280;36153;50.960;6.220;2023-06-14T01:22:55;100365.75;;;20.51;42.10
50268;BME280;36153;50.960;6.220;2023-06-14T01:25:55;100364.91;;;20.22;42.35
50268;BME280;36153;50.960;6.220;2023-06-14T01:28:56;100367.00;;;20.11;42.85
50268;BME280;36153;50.960;6.220;2023-06-14T01:31:59;100362.44;;;20.16;42.86
50268;BME280;36153;50.960;6.220;2023-06-14T01:35:00;100375.22;;;20.02;42.89
50268;BME280;36153;50.960;6.220;2023-06-14T01:38:02;100367.38;;;19.99;43.04
50268;BME280;36153;50.960;6.220;2023-06-14T01:41:03;100363.53;;;20.09;42.76
50268;BME280;36153;50.960;6.220;2023-06-14T01:44:06;100362.81;;;20.34;41.93
50268;BME280;36153;50.960;6.220;2023-06-14T01:47:06;100363.47;;;20.40;41.64
50268;BME280;36153;50.960;6.220;2023-06-14T01:50:07;100360.25;;;20.31;42.06
50268;BME280;36153;50.960;6.220;2023-06-14T01:53:09;100367.00;;;20.11;42.71
50268;BME280;36153;50.960;6.220;2023-06-14T01:56:09;100368.47;;;19.91;42.95
50268;BME280;36153;50.960;6.220;2023-06-14T01:59:10;100372.09;;;19.87;43.22
50268;BME280;36153;50.960;6.220;2023-06-14T02:02:10;100369.69;;;19.80;43.79
50268;BME280;36153;50.960;6.220;2023-06-14T02:05:11;100368.78;;;19.79;43.68
50268;BME280;36153;50.960;6.220;2023-06-14T02:08:11;100370.38;;;19.86;43.36
50268;BME280;36153;50.960;6.220;2023-06-14T02:11:11;100364.44;;;19.78;43.89
50268;BME280;36153;50.960;6.220;2023-06-14T02:14:12;100368.78;;;19.48;44.76
50268;BME280;36153;50.960;6.220;2023-06-14T02:17:12;100366.28;;;19.43;44.95
50268;BME280;36153;50.960;6.220;2023-06-14T02:20:13;100367.19;;;19.42;45.04
50268;BME280;36153;50.960;6.220;2023-06-14T02:23:13;100370.97;;;19.32;44.94
50268;BME280;36153;50.960;6.220;2023-06-14T02:26:13;100372.88;;;19.26;44.98
50268;BME280;36153;50.960;6.220;2023-06-14T02:29:14;100370.34;;;19.22;45.01
50268;BME280;36153;50.960;6.220;2023-06-14T02:32:15;100372.88;;;19.26;44.87
50268;BME280;36153;50.960;6.220;2023-06-14T02:35:15;100379.38;;;19.13;45.21
50268;BME280;36153;50.960;6.220;2023-06-14T02:38:15;100375.25;;;19.03;45.54
50268;BME280;36153;50.960;6.220;2023-06-14T02:41:16;100378.00;;;18.98;45.83
50268;BME280;36153;50.960;6.220;2023-06-14T02:44:23;100376.50;;;18.86;46.14
50268;BME280;36153;50.960;6.220;2023-06-14T02:47:24;100385.72;;;19.06;45.54
50268;BME280;36153;50.960;6.220;2023-06-14T02:50:24;100377.31;;;19.24;44.99
50268;BME280;36153;50.960;6.220;2023-06-14T02:53:25;100379.81;;;19.31;44.57
50268;BME280;36153;50.960;6.220;2023-06-14T02:56:26;100384.50;;;19.19;44.54
50268;BME280;36153;50.960;6.220;2023-06-14T02:59:27;100384.75;;;19.10;44.77
50268;BME280;36153;50.960;6.220;2023-06-14T03:02:28;100391.81;;;19.09;44.99
50268;BME280;36153;50.960;6.220;2023-06-14T03:05:28;100397.84;;;19.13;44.96
50268;BME280;36153;50.960;6.220;2023-06-14T03:08:28;100398.47;;;19.23;44.51
50268;BME280;36153;50.960;6.220;2023-06-14T03:11:31;100404.63;;;19.23;44.16
50268;BME280;36153;50.960;6.220;2023-06-14T03:14:31;100402.81;;;19.25;43.80
50268;BME280;36153;50.960;6.220;2023-06-14T03:17:32;100400.34;;;19.18;44.04
50268;BME280;36153;50.960;6.220;2023-06-14T03:20:33;100397.19;;;19.05;44.46
50268;BME280;36153;50.960;6.220;2023-06-14T03:23:34;100402.94;;;18.85;45.28
50268;BME280;36153;50.960;6.220;2023-06-14T03:26:34;100400.59;;;18.72;45.96
50268;BME280;36153;50.960;6.220;2023-06-14T03:29:34;100403.50;;;18.60;46.31
50268;BME280;36153;50.960;6.220;2023-06-14T03:32:34;100408.69;;;18.63;46.24
50268;BME280;36153;50.960;6.220;2023-06-14T03:35:35;100404.63;;;18.48;46.54
50268;BME280;36153;50.960;6.220;2023-06-14T03:38:35;100408.94;;;18.52;46.45
50268;BME280;36153;50.960;6.220;2023-06-14T03:41:36;100406.97;;;18.62;45.96
50268;BME280;36153;50.960;6.220;2023-06-14T03:44:36;100411.00;;;18.77;45.67
50268;BME280;36153;50.960;6.220;2023-06-14T03:47:37;100418.84;;;18.82;45.32
50268;BME280;36153;50.960;6.220;2023-06-14T03:50:37;100411.34;;;19.01;44.92
50268;BME280;36153;50.960;6.220;2023-06-14T03:53:40;100415.66;;;19.05;44.94
50268;BME280;36153;50.960;6.220;2023-06-14T03:56:40;100406.19;;;18.96;45.68
50268;BME280;36153;50.960;6.220;2023-06-14T03:59:41;100412.50;;;18.90;46.03
50268;BME280;36153;50.960;6.220;2023-06-14T04:02:41;100423.09;;;18.86;46.33
50268;BME280;36153;50.960;6.220;2023-06-14T04:05:42;100426.28;;;19.02;46.09
50268;BME280;36153;50.960;6.220;2023-06-14T04:08:42;100425.09;;;19.15;45.89
50268;BME280;36153;50.960;6.220;2023-06-14T04:11:42;100431.03;;;19.22;45.55
50268;BME280;36153;50.960;6.220;2023-06-14T04:14:43;100435.19;;;19.32;45.50
50268;BME280;36153;50.960;6.220;2023-06-14T04:17:43;100437.66;;;19.38;45.64
50268;BME280;36153;50.960;6.220;2023-06-14T04:20:43;100438.41;;;19.43;45.61
50268;BME280;36153;50.960;6.220;2023-06-14T04:23:44;100444.69;;;19.39;45.48
50268;BME280;36153;50.960;6.220;2023-06-14T04:26:45;100453.41;;;19.43;45.50
50268;BME280;36153;50.960;6.220;2023-06-14T04:29:47;100451.97;;;19.64;45.24
50268;BME280;36153;50.960;6.220;2023-06-14T04:32:53;100439.22;;;19.80;44.70
50268;BME280;36153;50.960;6.220;2023-06-14T04:35:55;100452.66;;;19.71;45.15
50268;BME280;36153;50.960;6.220;2023-06-14T04:38:56;100457.66;;;19.82;45.20
50268;BME280;36153;50.960;6.220;2023-06-14T04:41:56;100452.19;;;19.89;44.81
50268;BME280;36153;50.960;6.220;2023-06-14T04:44:57;100451.94;;;19.97;44.55
50268;BME280;36153;50.960;6.220;2023-06-14T04:48:00;100453.50;;;20.06;44.28
50268;BME280;36153;50.960;6.220;2023-06-14T04:51:01;100454.00;;;20.19;45.54
50268;BME280;36153;50.960;6.220;2023-06-14T04:54:04;100451.03;;;20.29;44.02
50268;BME280;36153;50.960;6.220;2023-06-14T04:57:04;100444.66;;;20.37;43.76
50268;BME280;36153;50.960;6.220;2023-06-14T05:00:06;100451.53;;;20.42;43.56
50268;BME280;36153;50.960;6.220;2023-06-14T05:03:06;100453.97;;;20.49;43.65
50268;BME280;36153;50.960;6.220;2023-06-14T05:06:06;100452.91;;;20.56;43.62
50268;BME280;36153;50.960;6.220;2023-06-14T05:09:07;100451.50;;;20.74;43.31
50268;BME280;36153;50.960;6.220;2023-06-14T05:12:07;100458.41;;;20.78;43.47
50268;BME280;36153;50.960;6.220;2023-06-14T05:15:08;100456.19;;;20.92;43.17
50268;BME280;36153;50.960;6.220;2023-06-14T05:18:09;100464.63;;;21.04;42.90
50268;BME280;36153;50.960;6.220;2023-06-14T05:21:09;100468.97;;;21.06;43.35
50268;BME280;36153;50.960;6.220;2023-06-14T05:24:11;100468.34;;;21.25;42.89
50268;BME280;36153;50.960;6.220;2023-06-14T05:27:11;100471.97;;;21.49;42.70
50268;BME280;36153;50.960;6.220;2023-06-14T05:30:13;100464.50;;;21.62;42.88
50268;BME280;36153;50.960;6.220;2023-06-14T05:33:14;100467.63;;;21.73;42.89
50268;BME280;36153;50.960;6.220;2023-06-14T05:36:14;100465.91;;;21.96;42.42
50268;BME280;36153;50.960;6.220;2023-06-14T05:39:15;100469.34;;;22.23;42.01
50268;BME280;36153;50.960;6.220;2023-06-14T05:42:15;100476.13;;;22.30;41.95
50268;BME280;36153;50.960;6.220;2023-06-14T05:45:16;100473.41;;;22.33;41.74
50268;BME280;36153;50.960;6.220;2023-06-14T05:48:16;100472.34;;;22.38;41.62
50268;BME280;36153;50.960;6.220;2023-06-14T05:51:17;100487.59;;;22.56;41.36
50268;BME280;36153;50.960;6.220;2023-06-14T05:54:19;100488.88;;;22.68;40.90
50268;BME280;36153;50.960;6.220;2023-06-14T05:57:19;100494.50;;;22.82;40.87
50268;BME280;36153;50.960;6.220;2023-06-14T06:00:20;100506.88;;;23.06;40.28
50268;BME280;36153;50.960;6.220;2023-06-14T06:03:20;100511.34;;;23.27;39.62
50268;BME280;36153;50.960;6.220;2023-06-14T06:06:21;100505.75;;;23.33;39.57
50268;BME280;36153;50.960;6.220;2023-06-14T06:09:21;100508.16;;;23.60;38.99
50268;BME280;36153;50.960;6.220;2023-06-14T06:12:21;100508.84;;;23.86;38.55
50268;BME280;36153;50.960;6.220;2023-06-14T06:15:22;100513.72;;;23.97;38.02
50268;BME280;36153;50.960;6.220;2023-06-14T06:18:22;100521.44;;;24.03;37.78
50268;BME280;36153;50.960;6.220;2023-06-14T06:21:22;100523.66;;;24.33;37.33
50268;BME280;36153;50.960;6.220;2023-06-14T06:24:23;100519.69;;;24.42;36.67
50268;BME280;36153;50.960;6.220;2023-06-14T06:27:23;100523.38;;;24.58;36.35
50268;BME280;36153;50.960;6.220;2023-06-14T06:30:24;100532.59;;;24.70;36.03
50268;BME280;36153;50.960;6.220;2023-06-14T06:33:24;100526.69;;;24.63;35.96
50268;BME280;36153;50.960;6.220;2023-06-14T06:36:25;100537.22;;;24.66;35.47
50268;BME280;36153;50.960;6.220;2023-06-14T06:39:25;100533.59;;;24.67;35.27
50268;BME280;36153;50.960;6.220;2023-06-14T06:42:26;100545.09;;;24.87;34.85
50268;BME280;36153;50.960;6.220;2023-06-14T06:45:26;100546.69;;;24.91;34.81
50268;BME280;36153;50.960;6.220;2023-06-14T06:48:27;100547.31;;;24.79;35.00
50268;BME280;36153;50.960;6.220;2023-06-14T06:51:27;100551.75;;;24.97;34.71
50268;BME280;36153;50.960;6.220;2023-06-14T06:54:28;100544.25;;;25.05;34.29
50268;BME280;36153;50.960;6.220;2023-06-14T06:57:28;100545.06;;;25.25;33.94
50268;BME280;36153;50.960;6.220;2023-06-14T07:00:32;100550.91;;;25.33;33.43
50268;BME280;36153;50.960;6.220;2023-06-14T07:03:32;100553.22;;;25.59;33.32
50268;BME280;36153;50.960;6.220;2023-06-14T07:06:32;100567.31;;;25.61;33.29
50268;BME280;36153;50.960;6.220;2023-06-14T07:09:33;100557.31;;;25.83;33.08
50268;BME280;36153;50.960;6.220;2023-06-14T07:12:33;100562.00;;;25.96;32.90
50268;BME280;36153;50.960;6.220;2023-06-14T07:15:36;100558.47;;;25.95;33.23
50268;BME280;36153;50.960;6.220;2023-06-14T07:18:36;100560.84;;;26.01;33.19
50268;BME280;36153;50.960;6.220;2023-06-14T07:21:37;100560.97;;;25.98;32.80
50268;BME280;36153;50.960;6.220;2023-06-14T07:24:38;100561.31;;;26.10;33.04
50268;BME280;36153;50.960;6.220;2023-06-14T07:27:41;100563.66;;;26.16;32.71
50268;BME280;36153;50.960;6.220;2023-06-14T07:30:42;100567.31;;;26.31;32.75
50268;BME280;36153;50.960;6.220;2023-06-14T07:33:42;100568.84;;;26.68;32.26
50268;BME280;36153;50.960;6.220;2023-06-14T07:36:42;100573.53;;;26.97;31.63
50268;BME280;36153;50.960;6.220;2023-06-14T07:39:44;100574.66;;;26.77;31.88
50268;BME280;36153;50.960;6.220;2023-06-14T07:42:45;100577.94;;;26.98;31.28
50268;BME280;36153;50.960;6.220;2023-06-14T07:45:45;100574.31;;;27.15;30.48
50268;BME280;36153;50.960;6.220;2023-06-14T07:48:46;100572.06;;;27.23;30.83
50268;BME280;36153;50.960;6.220;2023-06-14T07:51:46;100575.16;;;27.15;30.84
50268;BME280;36153;50.960;6.220;2023-06-14T07:54:48;100575.63;;;27.39;30.49
50268;BME280;36153;50.960;6.220;2023-06-14T07:57:48;100573.13;;;27.36;30.33
50268;BME280;36153;50.960;6.220;2023-06-14T08:00:49;100574.13;;;27.50;29.75
50268;BME280;36153;50.960;6.220;2023-06-14T08:03:50;100577.22;;;27.58;29.65
50268;BME280;36153;50.960;6.220;2023-06-14T08:06:50;100581.75;;;27.86;29.43
50268;BME280;36153;50.960;6.220;2023-06-14T08:09:50;100585.03;;;27.91;28.87
50268;BME280;36153;50.960;6.220;2023-06-14T08:12:51;100586.81;;;27.76;28.96
50268;BME280;36153;50.960;6.220;2023-06-14T08:15:51;100584.25;;;28.05;28.71
50268;BME280;36153;50.960;6.220;2023-06-14T08:18:52;100587.53;;;28.39;28.38
50268;BME280;36153;50.960;6.220;2023-06-14T08:21:52;100589.41;;;28.52;27.99
50268;BME280;36153;50.960;6.220;2023-06-14T08:24:54;100594.31;;;28.45;28.74
50268;BME280;36153;50.960;6.220;2023-06-14T08:27:55;100586.19;;;28.47;28.41
50268;BME280;36153;50.960;6.220;2023-06-14T08:30:55;100597.09;;;28.72;28.53
50268;BME280;36153;50.960;6.220;2023-06-14T08:33:56;100590.97;;;28.56;28.58
50268;BME280;36153;50.960;6.220;2023-06-14T08:36:56;100586.50;;;28.85;28.28
50268;BME280;36153;50.960;6.220;2023-06-14T08:39:56;100590.59;;;28.91;28.23
50268;BME280;36153;50.960;6.220;2023-06-14T08:42:57;100589.06;;;28.87;27.97
50268;BME280;36153;50.960;6.220;2023-06-14T08:46:03;100585.13;;;28.78;27.51
50268;BME280;36153;50.960;6.220;2023-06-14T08:49:04;100580.13;;;29.01;28.12
50268;BME280;36153;50.960;6.220;2023-06-14T08:52:09;100578.06;;;29.19;27.87
50268;BME280;36153;50.960;6.220;2023-06-14T08:55:10;100576.69;;;29.40;25.98
50268;BME280;36153;50.960;6.220;2023-06-14T08:58:11;100585.34;;;29.17;27.37
50268;BME280;36153;50.960;6.220;2023-06-14T09:01:14;100579.66;;;29.36;27.11
50268;BME280;36153;50.960;6.220;2023-06-14T09:04:16;100578.22;;;29.57;26.74
50268;BME280;36153;50.960;6.220;2023-06-14T09:07:17;100579.72;;;29.49;26.39
50268;BME280;36153;50.960;6.220;2023-06-14T09:10:17;100584.41;;;29.45;26.60
50268;BME280;36153;50.960;6.220;2023-06-14T09:13:17;100585.00;;;30.03;26.16
50268;BME280;36153;50.960;6.220;2023-06-14T09:16:18;100578.44;;;30.07;26.17
50268;BME280;36153;50.960;6.220;2023-06-14T09:19:23;100584.72;;;29.80;27.28
50268;BME280;36153;50.960;6.220;2023-06-14T09:22:23;100583.69;;;29.96;26.10
50268;BME280;36153;50.960;6.220;2023-06-14T09:25:23;100579.19;;;30.35;25.74
50268;BME280;36153;50.960;6.220;2023-06-14T09:28:27;100574.50;;;30.52;24.96
50268;BME280;36153;50.960;6.220;2023-06-14T09:31:28;100585.53;;;30.60;24.93
50268;BME280;36153;50.960;6.220;2023-06-14T09:34:33;100589.38;;;30.69;25.08
50268;BME280;36153;50.960;6.220;2023-06-14T09:37:34;100579.28;;;30.72;24.23
50268;BME280;36153;50.960;6.220;2023-06-14T09:40:35;100573.84;;;30.61;24.82
50268;BME280;36153;50.960;6.220;2023-06-14T09:43:38;100580.16;;;30.60;24.18
50268;BME280;36153;50.960;6.220;2023-06-14T09:46:39;100577.53;;;30.84;23.57
50268;BME280;36153;50.960;6.220;2023-06-14T09:49:39;100575.44;;;31.01;23.57
50268;BME280;36153;50.960;6.220;2023-06-14T09:52:41;100572.09;;;31.34;23.70
50268;BME280;36153;50.960;6.220;2023-06-14T09:55:44;100566.38;;;31.14;23.39
50268;BME280;36153;50.960;6.220;2023-06-14T09:58:45;100569.97;;;31.02;22.27
50268;BME280;36153;50.960;6.220;2023-06-14T10:01:47;100571.59;;;30.92;21.56
50268;BME280;36153;50.960;6.220;2023-06-14T10:05:05;100574.38;;;31.03;20.68
50268;BME280;36153;50.960;6.220;2023-06-14T10:08:13;100565.53;;;31.14;21.15
50268;BME280;36153;50.960;6.220;2023-06-14T10:11:14;100573.34;;;31.41;21.22
50268;BME280;36153;50.960;6.220;2023-06-14T10:14:15;100561.19;;;31.24;20.99
50268;BME280;36153;50.960;6.220;2023-06-14T10:17:22;100565.78;;;31.46;20.29
50268;BME280;36153;50.960;6.220;2023-06-14T10:20:34;100561.63;;;31.67;20.57
50268;BME280;36153;50.960;6.220;2023-06-14T10:23:40;100566.81;;;31.92;20.70
50268;BME280;36153;50.960;6.220;2023-06-14T10:26:51;100562.06;;;31.96;20.14
50268;BME280;36153;50.960;6.220;2023-06-14T10:33:03;100559.84;;;32.01;20.32
50268;BME280;36153;50.960;6.220;2023-06-14T10:36:09;100570.44;;;31.69;20.84
50268;BME280;36153;50.960;6.220;2023-06-14T10:39:17;100579.09;;;30.99;21.00
50268;BME280;36153;50.960;6.220;2023-06-14T10:42:18;100569.59;;;31.20;21.54
50268;BME280;36153;50.960;6.220;2023-06-14T10:45:19;100571.06;;;31.48;21.94
50268;BME280;36153;50.960;6.220;2023-06-14T10:48:29;100575.03;;;32.02;21.07
50268;BME280;36153;50.960;6.220;2023-06-14T10:51:30;100575.75;;;31.93;21.11
50268;BME280;36153;50.960;6.220;2023-06-14T10:55:10;100577.31;;;32.42;21.30
50268;BME280;36153;50.960;6.220;2023-06-14T10:58:12;100566.91;;;32.38;21.33
50268;BME280;36153;50.960;6.220;2023-06-14T11:01:13;100573.66;;;32.32;21.60
50268;BME280;36153;50.960;6.220;2023-06-14T11:04:14;100579.06;;;31.96;21.34
50268;BME280;36153;50.960;6.220;2023-06-14T11:07:52;100577.47;;;31.94;22.29
50268;BME280;36153;50.960;6.220;2023-06-14T11:10:59;100578.78;;;31.77;21.84
50268;BME280;36153;50.960;6.220;2023-06-14T11:14:01;100579.16;;;32.30;21.65
50268;BME280;36153;50.960;6.220;2023-06-14T11:17:02;100573.53;;;31.87;22.55
50268;BME280;36153;50.960;6.220;2023-06-14T11:20:12;100577.31;;;32.20;23.31
50268;BME280;36153;50.960;6.220;2023-06-14T11:23:16;100575.56;;;32.07;22.55
50268;BME280;36153;50.960;6.220;2023-06-14T11:26:24;100579.28;;;32.74;21.84
50268;BME280;36153;50.960;6.220;2023-06-14T11:29:28;100581.50;;;32.69;21.96
50268;BME280;36153;50.960;6.220;2023-06-14T11:32:31;100584.44;;;32.43;22.56
50268;BME280;36153;50.960;6.220;2023-06-14T11:35:31;100573.38;;;32.12;22.27
50268;BME280;36153;50.960;6.220;2023-06-14T11:38:36;100577.31;;;32.20;23.12
50268;BME280;36153;50.960;6.220;2023-06-14T11:41:44;100576.56;;;32.29;21.94
50268;BME280;36153;50.960;6.220;2023-06-14T11:44:49;100575.97;;;32.37;21.30
50268;BME280;36153;50.960;6.220;2023-06-14T11:47:50;100588.34;;;32.28;21.54
50268;BME280;36153;50.960;6.220;2023-06-14T11:50:50;100581.25;;;32.38;21.95
50268;BME280;36153;50.960;6.220;2023-06-14T11:53:51;100575.09;;;32.25;21.40
50268;BME280;36153;50.960;6.220;2023-06-14T11:56:52;100586.56;;;32.04;20.74
50268;BME280;36153;50.960;6.220;2023-06-14T11:59:54;100582.84;;;32.52;20.35
50268;BME280;36153;50.960;6.220;2023-06-14T12:02:56;100582.97;;;32.39;20.06
50268;BME280;36153;50.960;6.220;2023-06-14T12:06:07;100590.41;;;32.58;20.84
50268;BME280;36153;50.960;6.220;2023-06-14T12:09:08;100577.56;;;32.96;20.26
50268;BME280;36153;50.960;6.220;2023-06-14T12:12:13;100574.25;;;32.92;20.69
50268;BME280;36153;50.960;6.220;2023-06-14T12:15:13;100578.53;;;32.61;20.17
50268;BME280;36153;50.960;6.220;2023-06-14T12:18:13;100576.31;;;32.66;20.72
50268;BME280;36153;50.960;6.220;2023-06-14T12:21:14;100570.69;;;32.92;20.46
50268;BME280;36153;50.960;6.220;2023-06-14T12:24:15;100569.09;;;33.00;20.24
50268;BME280;36153;50.960;6.220;2023-06-14T12:27:16;100568.84;;;33.36;19.59
50268;BME280;36153;50.960;6.220;2023-06-14T12:30:18;100575.72;;;33.40;20.46
50268;BME280;36153;50.960;6.220;2023-06-14T12:33:19;100573.06;;;33.29;20.08
50268;BME280;36153;50.960;6.220;2023-06-14T12:36:19;100569.63;;;33.59;20.10
50268;BME280;36153;50.960;6.220;2023-06-14T12:39:20;100560.75;;;33.68;19.78
50268;BME280;36153;50.960;6.220;2023-06-14T12:42:21;100571.84;;;33.22;19.93
50268;BME280;36153;50.960;6.220;2023-06-14T12:45:21;100573.69;;;33.32;19.92
50268;BME280;36153;50.960;6.220;2023-06-14T12:48:23;100568.91;;;33.57;19.97
50268;BME280;36153;50.960;6.220;2023-06-14T12:51:24;100564.66;;;33.97;19.55
50268;BME280;36153;50.960;6.220;2023-06-14T12:54:26;100559.44;;;34.05;19.83
50268;BME280;36153;50.960;6.220;2023-06-14T12:57:29;100565.16;;;34.33;19.83
50268;BME280;36153;50.960;6.220;2023-06-14T13:00:29;100568.31;;;34.38;19.64
50268;BME280;36153;50.960;6.220;2023-06-14T13:03:30;100559.72;;;34.02;19.85
50268;BME280;36153;50.960;6.220;2023-06-14T13:06:31;100558.50;;;34.37;19.44
50268;BME280;36153;50.960;6.220;2023-06-14T13:09:31;100554.38;;;34.83;19.53
50268;BME280;36153;50.960;6.220;2023-06-14T13:12:32;100560.63;;;34.74;19.93
50268;BME280;36153;50.960;6.220;2023-06-14T13:15:32;100557.84;;;35.05;19.72
50268;BME280;36153;50.960;6.220;2023-06-14T13:18:33;100561.19;;;34.78;19.81
50268;BME280;36153;50.960;6.220;2023-06-14T13:21:33;100561.97;;;34.59;20.88
50268;BME280;36153;50.960;6.220;2023-06-14T13:24:34;100563.41;;;34.94;20.46
50268;BME280;36153;50.960;6.220;2023-06-14T13:27:34;100562.16;;;34.77;20.10
50268;BME280;36153;50.960;6.220;2023-06-14T13:30:34;100564.97;;;35.06;20.04
50268;BME280;36153;50.960;6.220;2023-06-14T13:33:35;100564.84;;;34.67;20.64
50268;BME280;36153;50.960;6.220;2023-06-14T13:36:35;100556.28;;;34.00;20.71
50268;BME280;36153;50.960;6.220;2023-06-14T13:39:36;100553.69;;;34.19;20.96
50268;BME280;36153;50.960;6.220;2023-06-14T13:42:37;100552.50;;;34.74;20.59
50268;BME280;36153;50.960;6.220;2023-06-14T13:45:37;100556.81;;;34.46;20.76
50268;BME280;36153;50.960;6.220;2023-06-14T13:48:38;100556.31;;;34.62;20.81
50268;BME280;36153;50.960;6.220;2023-06-14T13:51:38;100546.91;;;34.56;20.74
50268;BME280;36153;50.960;6.220;2023-06-14T13:54:38;100544.47;;;34.94;20.40
50268;BME280;36153;50.960;6.220;2023-06-14T13:57:39;100546.66;;;34.79;20.83
50268;BME280;36153;50.960;6.220;2023-06-14T14:00:40;100536.81;;;35.58;21.07
50268;BME280;36153;50.960;6.220;2023-06-14T14:03:41;100535.47;;;35.03;20.25
50268;BME280;36153;50.960;6.220;2023-06-14T14:06:41;100538.44;;;34.80;21.09
50268;BME280;36153;50.960;6.220;2023-06-14T14:09:42;100539.09;;;35.43;20.46
50268;BME280;36153;50.960;6.220;2023-06-14T14:12:43;100532.56;;;35.35;19.78
50268;BME280;36153;50.960;6.220;2023-06-14T14:15:43;100532.94;;;35.01;20.29
50268;BME280;36153;50.960;6.220;2023-06-14T14:18:44;100533.06;;;35.00;20.15
50268;BME280;36153;50.960;6.220;2023-06-14T14:21:44;100528.06;;;34.85;20.16
50268;BME280;36153;50.960;6.220;2023-06-14T14:24:45;100524.81;;;35.21;20.03
50268;BME280;36153;50.960;6.220;2023-06-14T14:27:45;100528.13;;;35.44;19.84
50268;BME280;36153;50.960;6.220;2023-06-14T14:30:46;100534.94;;;35.19;19.93
50268;BME280;36153;50.960;6.220;2023-06-14T14:33:47;100532.81;;;35.42;19.71
50268;BME280;36153;50.960;6.220;2023-06-14T14:36:47;100537.38;;;35.51;20.12
50268;BME280;36153;50.960;6.220;2023-06-14T14:39:48;100532.66;;;35.63;20.06
50268;BME280;36153;50.960;6.220;2023-06-14T14:42:48;100539.38;;;35.20;19.83
50268;BME280;36153;50.960;6.220;2023-06-14T14:45:48;100533.66;;;35.13;19.67
50268;BME280;36153;50.960;6.220;2023-06-14T14:48:49;100522.53;;;35.26;19.85
50268;BME280;36153;50.960;6.220;2023-06-14T14:51:49;100523.16;;;35.40;19.95
50268;BME280;36153;50.960;6.220;2023-06-14T14:54:49;100529.91;;;34.95;20.02
50268;BME280;36153;50.960;6.220;2023-06-14T14:57:50;100538.97;;;34.64;19.75
50268;BME280;36153;50.960;6.220;2023-06-14T15:00:50;100533.66;;;34.94;20.40
50268;BME280;36153;50.960;6.220;2023-06-14T15:03:51;100530.25;;;35.41;19.65
50268;BME280;36153;50.960;6.220;2023-06-14T15:06:51;100531.81;;;35.14;19.58
50268;BME280;36153;50.960;6.220;2023-06-14T15:09:51;100520.44;;;35.49;19.49
50268;BME280;36153;50.960;6.220;2023-06-14T15:12:52;100525.81;;;35.69;19.79
50268;BME280;36153;50.960;6.220;2023-06-14T15:15:52;100526.16;;;36.03;20.19
50268;BME280;36153;50.960;6.220;2023-06-14T15:18:52;100524.50;;;36.30;19.76
50268;BME280;36153;50.960;6.220;2023-06-14T15:21:53;100532.78;;;36.29;19.14
50268;BME280;36153;50.960;6.220;2023-06-14T15:24:53;100529.69;;;35.27;19.18
50268;BME280;36153;50.960;6.220;2023-06-14T15:27:54;100529.09;;;35.24;19.38
50268;BME280;36153;50.960;6.220;2023-06-14T15:30:58;100516.00;;;35.58;18.20
50268;BME280;36153;50.960;6.220;2023-06-14T15:33:59;100520.22;;;36.37;18.08
50268;BME280;36153;50.960;6.220;2023-06-14T15:36:59;100513.53;;;36.32;17.68
50268;BME280;36153;50.960;6.220;2023-06-14T15:40:00;100527.00;;;36.51;18.11
50268;BME280;36153;50.960;6.220;2023-06-14T15:43:00;100529.97;;;35.53;18.81
50268;BME280;36153;50.960;6.220;2023-06-14T15:46:00;100536.34;;;33.91;20.34
50268;BME280;36153;50.960;6.220;2023-06-14T15:49:01;100532.34;;;33.21;20.99
50268;BME280;36153;50.960;6.220;2023-06-14T15:52:02;100529.44;;;32.57;22.11